Flowell, Utah
Current Conditions -  °F | °C
As of 9:35 PM on Thursday 20 Nov 2014 (Local Time) from KDTA Reporting Station
Clear Clear  
Wind Chill: 25°   Ceiling: Unl
Heat Index: 33°   Visibility: 10mi
Dew Point: 17°   Wind: 9mph
Humidity: 52%   Direction: 40°NE
Pressure: 30.01"   Gusts: NA
Location:  38.898°N, 112.594°W
Report Text: KDTA 210435Z AUTO 04008KT 10SM CLR 00/M08 A3001 RMK AO1 T00031085
Loading
Personal Weather Stations






























Interactive Weather Map New forecast layout! Learn more

10-Day Weather Forecast

Advertisements
Track Severe Weather on mobile